Time;durP1;ratioP1;P1;durP2;ratioP2;P2;SDS_P1;SDS_P2;PMS_P1;PMS_P2;Temp;Humidity;BMP_temperature;BMP_pressure;BME280_temperature;BME280_humidity;BME280_pressure;Samples;Min_cycle;Max_cycle;Signal;HPM_P1;HPM_P2
2023/11/27 00:00:29;;;;;;;4.20;2.53;;;5.10;99.90;;;;;;5033286;28;20050;-66
2023/11/27 00:02:55;;;;;;;3.47;2.53;;;5.20;99.90;;;;;;5004194;28;20042;-66
2023/11/27 00:05:23;;;;;;;6.45;2.80;;;5.20;99.90;;;;;;5007956;28;20618;-66
2023/11/27 00:07:49;;;;;;;3.60;2.40;;;5.20;99.90;;;;;;4998520;28;20058;-65
2023/11/27 00:10:15;;;;;;;4.43;3.42;;;5.30;99.90;;;;;;5001275;28;20046;-65
2023/11/27 00:12:41;;;;;;;4.88;2.45;;;5.30;99.90;;;;;;5004903;28;20569;-66
2023/11/27 00:15:07;;;;;;;9.55;4.68;;;5.30;99.90;;;;;;5001857;28;20038;-66
2023/11/27 00:17:33;;;;;;;6.00;4.07;;;5.30;99.90;;;;;;4999807;28;20082;-66
2023/11/27 00:19:59;;;;;;;6.05;3.75;;;5.40;99.90;;;;;;5001613;28;20052;-66
2023/11/27 00:22:25;;;;;;;5.05;3.15;;;5.40;99.90;;;;;;5006591;28;20046;-66
2023/11/27 00:24:50;;;;;;;7.18;3.75;;;5.30;99.90;;;;;;5040097;28;20040;-66
2023/11/27 00:27:17;;;;;;;5.63;3.22;;;5.40;99.90;;;;;;5027630;28;20065;-66
2023/11/27 00:29:43;;;;;;;7.05;3.72;;;5.40;99.90;;;;;;5037670;28;20046;-66
2023/11/27 00:32:09;;;;;;;10.98;3.55;;;5.40;99.90;;;;;;5001801;28;20030;-66
2023/11/27 00:34:34;;;;;;;5.88;3.42;;;5.40;99.90;;;;;;5037292;28;20103;-66
2023/11/27 00:37:00;;;;;;;5.32;3.55;;;5.50;99.90;;;;;;5030569;28;20078;-66
2023/11/27 00:39:26;;;;;;;7.15;3.95;;;5.50;99.90;;;;;;5008934;28;20041;-66
2023/11/27 00:41:52;;;;;;;4.80;3.58;;;5.40;99.90;;;;;;5004142;28;20100;-66
2023/11/27 00:44:17;;;;;;;5.47;4.55;;;5.50;99.90;;;;;;5036431;28;20100;-64
2023/11/27 00:46:43;;;;;;;5.47;3.90;;;5.50;99.90;;;;;;5033018;28;20414;-64
2023/11/27 00:49:09;;;;;;;8.05;4.18;;;5.50;99.90;;;;;;5006085;28;20041;-64
2023/11/27 00:51:35;;;;;;;5.82;4.00;;;5.50;99.90;;;;;;5003824;28;20088;-65
2023/11/27 00:54:00;;;;;;;4.55;3.75;;;5.50;99.90;;;;;;5005978;28;20034;-66
2023/11/27 00:56:27;;;;;;;6.05;4.45;;;5.50;99.90;;;;;;4999931;28;20099;-65
2023/11/27 00:58:53;;;;;;;10.38;5.60;;;5.40;99.90;;;;;;5035170;28;20077;-65
2023/11/27 01:01:18;;;;;;;8.07;5.03;;;5.50;99.90;;;;;;5004171;28;20434;-66
2023/11/27 01:03:44;;;;;;;6.85;3.80;;;5.50;99.90;;;;;;5000866;28;20879;-66
2023/11/27 01:06:14;;;;;;;7.22;5.05;;;5.50;99.90;;;;;;4998306;28;20042;-65
2023/11/27 01:08:41;;;;;;;8.77;5.03;;;5.50;99.90;;;;;;5003858;28;20034;-66
2023/11/27 01:11:07;;;;;;;5.30;4.20;;;5.50;99.90;;;;;;5036670;28;20557;-65
2023/11/27 01:13:33;;;;;;;8.07;4.63;;;5.50;99.90;;;;;;5008024;28;20045;-65
2023/11/27 01:16:00;;;;;;;7.18;4.72;;;5.50;99.90;;;;;;5003277;28;20092;-65
2023/11/27 01:18:27;;;;;;;7.88;5.50;;;5.50;99.90;;;;;;5002157;28;20038;-66
2023/11/27 01:20:53;;;;;;;7.50;5.22;;;5.50;99.90;;;;;;5037251;28;20060;-66
2023/11/27 01:23:19;;;;;;;8.88;4.68;;;5.50;99.90;;;;;;4996032;28;20050;-66
2023/11/27 01:25:45;;;;;;;5.72;4.38;;;5.40;99.90;;;;;;5036748;28;20370;-66
2023/11/27 01:28:10;;;;;;;8.10;5.35;;;5.50;99.90;;;;;;5004818;28;20532;-66
2023/11/27 01:30:37;;;;;;;5.35;4.07;;;5.40;99.90;;;;;;5006537;28;20323;-66
2023/11/27 01:33:04;;;;;;;7.70;4.80;;;5.40;99.90;;;;;;5000519;28;20085;-66
2023/11/27 01:35:30;;;;;;;7.60;5.38;;;5.40;99.90;;;;;;5002580;28;20210;-66
2023/11/27 01:37:55;;;;;;;6.65;4.88;;;5.40;99.90;;;;;;5003550;28;20073;-66
2023/11/27 01:40:22;;;;;;;5.78;4.10;;;5.40;99.90;;;;;;5006668;28;20081;-66
2023/11/27 01:42:48;;;;;;;5.70;4.15;;;5.40;99.90;;;;;;5003699;28;20080;-66
2023/11/27 01:45:13;;;;;;;8.05;5.65;;;5.50;99.90;;;;;;4998444;28;20490;-66
2023/11/27 01:47:39;;;;;;;5.72;4.28;;;5.40;99.90;;;;;;5002673;28;20129;-67
2023/11/27 01:50:08;;;;;;;5.82;4.65;;;5.50;99.90;;;;;;5002995;28;20122;-67
2023/11/27 01:52:35;;;;;;;7.00;4.80;;;5.50;99.90;;;;;;5000396;28;20418;-67
2023/11/27 01:55:02;;;;;;;6.28;4.05;;;5.40;99.90;;;;;;5035591;28;20053;-67
2023/11/27 01:57:28;;;;;;;8.55;5.03;;;5.40;99.90;;;;;;5021693;28;20406;-67
2023/11/27 01:59:55;;;;;;;6.00;4.10;;;5.40;99.90;;;;;;5038577;28;20066;-67
2023/11/27 02:02:21;;;;;;;7.00;5.10;;;5.50;99.90;;;;;;5030965;28;20149;-67
2023/11/27 02:04:47;;;;;;;6.05;4.05;;;5.50;99.90;;;;;;5004123;28;20132;-67
2023/11/27 02:07:14;;;;;;;5.45;4.55;;;5.40;99.90;;;;;;5004289;28;20057;-66
2023/11/27 02:09:39;;;;;;;6.20;4.13;;;5.50;99.90;;;;;;4997956;28;20054;-66
2023/11/27 02:12:05;;;;;;;6.15;4.10;;;5.40;99.90;;;;;;4998092;28;20038;-65
2023/11/27 02:14:31;;;;;;;6.55;4.60;;;5.40;99.90;;;;;;5002450;28;20046;-66
2023/11/27 02:16:57;;;;;;;6.65;4.10;;;5.40;99.90;;;;;;5004934;28;20046;-65
2023/11/27 02:19:23;;;;;;;5.72;4.20;;;5.40;99.90;;;;;;4999069;28;20042;-65
2023/11/27 02:21:49;;;;;;;6.13;4.50;;;5.40;99.90;;;;;;5000149;28;20082;-65
2023/11/27 02:24:15;;;;;;;3.42;2.90;;;5.40;99.90;;;;;;5001119;28;20573;-65
2023/11/27 02:26:41;;;;;;;4.72;3.47;;;5.40;99.90;;;;;;5003731;28;20030;-65
2023/11/27 02:29:07;;;;;;;4.57;3.83;;;5.40;99.90;;;;;;5002692;28;20034;-65
2023/11/27 02:31:37;;;;;;;4.38;3.40;;;5.40;99.90;;;;;;4995757;28;20054;-65
2023/11/27 02:34:03;;;;;;;4.18;2.80;;;5.40;99.90;;;;;;5005263;28;20042;-65
2023/11/27 02:36:38;;;;;;;5.53;3.78;;;5.40;99.90;;;;;;5002134;28;20038;-66
2023/11/27 02:39:06;;;;;;;5.95;3.75;;;5.40;99.90;;;;;;5032881;28;20479;-65
2023/11/27 02:41:35;;;;;;;4.32;3.53;;;5.30;99.90;;;;;;5035778;28;20156;-66
2023/11/27 02:44:01;;;;;;;6.00;3.67;;;5.30;99.90;;;;;;5003598;28;20121;-65
2023/11/27 02:46:27;;;;;;;7.97;3.53;;;5.40;99.90;;;;;;4998701;28;20146;-65
2023/11/27 02:48:52;;;;;;;3.42;2.38;;;5.30;99.90;;;;;;4986920;28;20405;-65
2023/11/27 02:51:20;;;;;;;4.90;2.75;;;5.40;99.90;;;;;;5000478;28;20034;-65
2023/11/27 02:53:45;;;;;;;3.30;2.35;;;5.30;99.90;;;;;;5007221;28;20153;-65
2023/11/27 02:56:11;;;;;;;3.88;2.83;;;5.30;99.90;;;;;;5005933;28;20089;-66
2023/11/27 02:58:38;;;;;;;5.03;2.95;;;5.30;99.90;;;;;;5002423;28;20801;-66
2023/11/27 03:01:07;;;;;;;4.10;2.90;;;5.30;99.90;;;;;;5031076;28;20053;-66
2023/11/27 03:03:37;;;;;;;4.28;1.98;;;5.30;99.90;;;;;;5001946;28;20058;-66
2023/11/27 03:06:03;;;;;;;2.53;2.03;;;5.30;99.90;;;;;;5002636;28;20188;-66
2023/11/27 03:08:29;;;;;;;2.85;2.20;;;5.20;99.90;;;;;;5005459;28;20176;-66
2023/11/27 03:10:56;;;;;;;3.45;2.70;;;5.20;99.90;;;;;;5009749;28;20118;-66
2023/11/27 03:13:23;;;;;;;3.55;2.42;;;5.20;99.90;;;;;;5011075;28;20498;-66
2023/11/27 03:15:49;;;;;;;3.30;2.13;;;5.20;99.90;;;;;;5004834;28;20037;-67
2023/11/27 03:18:15;;;;;;;2.95;1.88;;;5.20;99.90;;;;;;5042280;28;20045;-66
2023/11/27 03:20:40;;;;;;;3.13;2.13;;;5.20;99.90;;;;;;5006445;28;20422;-66
2023/11/27 03:23:06;;;;;;;3.25;2.53;;;5.10;99.90;;;;;;5038140;28;20117;-66
2023/11/27 03:25:32;;;;;;;4.22;2.20;;;5.20;99.90;;;;;;5003115;28;20050;-66
2023/11/27 03:27:57;;;;;;;4.60;2.47;;;5.10;99.90;;;;;;5034660;28;20053;-66
2023/11/27 03:30:23;;;;;;;2.95;2.08;;;5.10;99.90;;;;;;5005289;28;20043;-66
2023/11/27 03:32:50;;;;;;;3.25;2.15;;;5.00;99.90;;;;;;5006785;28;20131;-66
2023/11/27 03:35:16;;;;;;;2.40;1.83;;;5.10;99.90;;;;;;5007491;28;20052;-66
2023/11/27 03:37:43;;;;;;;2.45;1.83;;;5.00;99.90;;;;;;5039562;28;20398;-66
2023/11/27 03:40:09;;;;;;;3.70;2.40;;;5.00;99.90;;;;;;5008255;28;20104;-66
2023/11/27 03:42:34;;;;;;;2.35;1.40;;;5.00;99.90;;;;;;5008478;28;20485;-66
2023/11/27 03:45:01;;;;;;;2.38;1.50;;;5.00;99.90;;;;;;5017258;28;20045;-66
2023/11/27 03:47:26;;;;;;;1.67;0.77;;;5.00;99.90;;;;;;4999774;28;20078;-66
2023/11/27 03:49:52;;;;;;;2.17;1.38;;;5.00;99.90;;;;;;5037840;28;20049;-66
2023/11/27 03:52:22;;;;;;;2.70;1.58;;;5.00;99.90;;;;;;5006315;28;20393;-67
2023/11/27 03:54:47;;;;;;;1.63;1.30;;;5.00;99.90;;;;;;5005738;28;20072;-66
2023/11/27 03:57:13;;;;;;;1.52;1.05;;;5.00;99.90;;;;;;5003221;28;20451;-66
2023/11/27 03:59:39;;;;;;;0.98;0.75;;;5.00;99.90;;;;;;5036087;28;20046;-66
2023/11/27 04:02:05;;;;;;;0.98;0.85;;;5.00;99.90;;;;;;5006145;28;20041;-66
2023/11/27 04:04:30;;;;;;;2.53;1.50;;;4.90;99.90;;;;;;5032506;28;20097;-66
2023/11/27 04:06:56;;;;;;;1.70;1.30;;;4.90;99.90;;;;;;5035963;28;20038;-66
2023/11/27 04:09:22;;;;;;;2.30;1.58;;;4.90;99.90;;;;;;5034313;28;20129;-66
2023/11/27 04:11:51;;;;;;;1.58;1.25;;;5.00;99.90;;;;;;5039115;28;20141;-66
2023/11/27 04:14:17;;;;;;;1.42;1.33;;;4.90;99.90;;;;;;5000514;28;20097;-66
2023/11/27 04:16:43;;;;;;;4.85;1.63;;;4.90;99.90;;;;;;5007850;28;20045;-66
2023/11/27 04:19:09;;;;;;;1.42;0.88;;;4.90;99.90;;;;;;5004837;28;20104;-66
2023/11/27 04:21:34;;;;;;;2.28;1.52;;;4.90;99.90;;;;;;5008926;28;20109;-66
2023/11/27 04:24:00;;;;;;;1.67;1.30;;;4.90;99.90;;;;;;5037394;28;20038;-66
2023/11/27 04:26:26;;;;;;;3.83;1.42;;;4.90;99.90;;;;;;5005184;28;20612;-66
2023/11/27 04:28:51;;;;;;;1.95;1.23;;;4.90;99.90;;;;;;5006055;28;20113;-66
2023/11/27 04:31:18;;;;;;;1.73;1.23;;;4.90;99.90;;;;;;5006039;28;20042;-66
2023/11/27 04:33:43;;;;;;;1.65;0.93;;;4.90;99.90;;;;;;5005071;28;20065;-66
2023/11/27 04:36:10;;;;;;;1.63;1.23;;;4.90;99.90;;;;;;5007273;28;20410;-66
2023/11/27 04:38:36;;;;;;;0.93;0.90;;;4.90;99.90;;;;;;5003962;28;20042;-66
2023/11/27 04:41:02;;;;;;;1.15;0.95;;;4.90;99.90;;;;;;5006743;28;20056;-66
2023/11/27 04:43:28;;;;;;;1.33;1.00;;;4.80;99.90;;;;;;5004979;28;20046;-66
2023/11/27 04:45:55;;;;;;;2.92;1.50;;;4.90;99.90;;;;;;5000310;28;20046;-65
2023/11/27 04:48:21;;;;;;;2.20;0.93;;;4.90;99.90;;;;;;5005407;28;20578;-65
2023/11/27 04:50:48;;;;;;;1.15;1.05;;;4.90;99.90;;;;;;5003569;28;20373;-66
2023/11/27 04:53:13;;;;;;;1.33;1.05;;;4.80;99.90;;;;;;4996374;28;20096;-66
2023/11/27 04:55:39;;;;;;;2.20;1.58;;;4.90;99.90;;;;;;5024652;28;20759;-66
2023/11/27 04:58:05;;;;;;;1.77;1.10;;;4.90;99.90;;;;;;5006212;28;20037;-65
2023/11/27 05:00:31;;;;;;;5.25;2.47;;;4.90;99.90;;;;;;5037686;28;20050;-66
2023/11/27 05:02:57;;;;;;;1.23;1.08;;;4.90;99.90;;;;;;5023023;28;20562;-66
2023/11/27 05:05:22;;;;;;;1.20;1.00;;;4.80;99.90;;;;;;5007259;28;20113;-66
2023/11/27 05:07:49;;;;;;;1.08;0.98;;;4.80;99.90;;;;;;5035116;28;20041;-66
2023/11/27 05:10:14;;;;;;;2.13;0.95;;;4.90;99.90;;;;;;5005005;28;20046;-66
2023/11/27 05:12:41;;;;;;;1.40;1.00;;;4.90;99.90;;;;;;5001072;28;20113;-66
2023/11/27 05:15:08;;;;;;;2.20;1.27;;;4.90;99.90;;;;;;5037225;28;20411;-66
2023/11/27 05:17:33;;;;;;;1.25;0.88;;;4.90;99.90;;;;;;5040229;28;20391;-66
2023/11/27 05:19:59;;;;;;;1.52;1.15;;;4.80;99.90;;;;;;5032008;28;20053;-66
2023/11/27 05:22:27;;;;;;;1.23;1.10;;;4.90;99.90;;;;;;5020088;28;20100;-66
2023/11/27 05:24:53;;;;;;;1.48;0.85;;;4.80;99.90;;;;;;5005655;28;20061;-66
2023/11/27 05:27:19;;;;;;;1.42;1.25;;;4.80;99.90;;;;;;5006750;28;20050;-66
2023/11/27 05:29:44;;;;;;;1.25;1.10;;;4.90;99.90;;;;;;5007180;28;20045;-66
2023/11/27 05:32:10;;;;;;;2.85;1.73;;;4.80;99.90;;;;;;5032413;28;20037;-66
2023/11/27 05:34:36;;;;;;;1.58;1.10;;;4.90;99.90;;;;;;5003971;28;20045;-65
2023/11/27 05:37:03;;;;;;;0.88;0.65;;;4.90;99.90;;;;;;5019700;28;20111;-66
2023/11/27 05:39:29;;;;;;;1.58;0.98;;;4.80;99.90;;;;;;5005908;28;20101;-65
2023/11/27 05:41:57;;;;;;;2.22;1.45;;;4.80;99.90;;;;;;5032835;28;20122;-65
2023/11/27 05:44:24;;;;;;;1.42;1.33;;;4.80;99.90;;;;;;5005235;28;20443;-65
2023/11/27 05:46:49;;;;;;;2.63;1.40;;;4.90;99.90;;;;;;5047541;28;20046;-66
2023/11/27 05:49:15;;;;;;;1.20;1.08;;;4.90;99.90;;;;;;5002645;28;20061;-65
2023/11/27 05:51:41;;;;;;;1.52;1.33;;;4.80;99.90;;;;;;5012648;28;20043;-65
2023/11/27 05:54:09;;;;;;;0.88;0.85;;;4.80;99.90;;;;;;5009717;28;20038;-65
2023/11/27 05:56:34;;;;;;;1.02;0.90;;;4.80;99.90;;;;;;5034872;28;20046;-65
2023/11/27 05:59:00;;;;;;;1.17;0.77;;;4.80;99.90;;;;;;5001026;28;20176;-65
2023/11/27 06:01:26;;;;;;;1.55;1.05;;;4.70;99.90;;;;;;4997697;28;20038;-66
2023/11/27 06:03:51;;;;;;;3.10;1.65;;;4.80;99.90;;;;;;5041388;28;20107;-65
2023/11/27 06:06:17;;;;;;;0.70;0.55;;;4.80;99.90;;;;;;5037088;28;20038;-65
2023/11/27 06:08:43;;;;;;;1.63;1.13;;;4.80;99.90;;;;;;5009673;28;20157;-65
2023/11/27 06:11:10;;;;;;;2.10;1.30;;;4.90;99.90;;;;;;4996802;28;20125;-66
2023/11/27 06:13:36;;;;;;;1.02;0.77;;;4.80;99.90;;;;;;5038764;28;20049;-66
2023/11/27 06:16:02;;;;;;;1.30;1.13;;;4.80;99.90;;;;;;5000706;28;20038;-65
2023/11/27 06:18:28;;;;;;;1.13;1.02;;;4.80;99.90;;;;;;5007901;28;20045;-65
2023/11/27 06:20:53;;;;;;;1.85;1.15;;;4.80;99.90;;;;;;5035420;28;20050;-66
2023/11/27 06:23:19;;;;;;;0.90;0.85;;;4.80;99.90;;;;;;5002018;28;20052;-65
2023/11/27 06:25:45;;;;;;;1.30;1.20;;;4.80;99.90;;;;;;5004483;28;20056;-67
2023/11/27 06:28:13;;;;;;;1.83;1.23;;;4.80;99.90;;;;;;5046860;28;20053;-66
2023/11/27 06:30:39;;;;;;;1.48;0.85;;;4.80;99.90;;;;;;4998041;28;20581;-66
2023/11/27 06:33:06;;;;;;;1.30;0.95;;;4.80;99.90;;;;;;5004558;28;20365;-66
2023/11/27 06:35:32;;;;;;;2.30;1.35;;;4.80;99.90;;;;;;4998396;28;20394;-66
2023/11/27 06:37:57;;;;;;;1.63;1.17;;;4.80;99.90;;;;;;4997645;28;20124;-66
2023/11/27 06:40:24;;;;;;;1.45;1.10;;;4.70;99.90;;;;;;4997684;28;20042;-66
2023/11/27 06:42:50;;;;;;;1.33;0.77;;;4.70;99.90;;;;;;5002885;28;20417;-66
2023/11/27 06:45:16;;;;;;;2.28;1.95;;;4.70;99.90;;;;;;5000350;28;20462;-66
2023/11/27 06:47:42;;;;;;;1.45;1.00;;;4.80;99.90;;;;;;5030088;28;20054;-66
2023/11/27 06:50:08;;;;;;;2.00;1.20;;;4.70;99.90;;;;;;5005298;28;20372;-66
2023/11/27 06:52:34;;;;;;;1.40;1.20;;;4.70;99.90;;;;;;5037025;28;20536;-66
2023/11/27 06:54:59;;;;;;;1.77;1.30;;;4.70;99.90;;;;;;4998528;28;20061;-66
2023/11/27 06:57:25;;;;;;;1.27;1.17;;;4.70;99.90;;;;;;4999421;28;20120;-66
2023/11/27 06:59:51;;;;;;;3.28;0.77;;;4.70;99.90;;;;;;5000526;28;20513;-66
2023/11/27 07:02:18;;;;;;;1.40;1.30;;;4.70;99.90;;;;;;5032928;28;20045;-66
2023/11/27 07:04:43;;;;;;;2.22;1.38;;;4.70;99.90;;;;;;5001713;28;20474;-66
2023/11/27 07:07:09;;;;;;;1.63;1.50;;;4.70;99.90;;;;;;5033691;28;20382;-66
2023/11/27 07:09:35;;;;;;;1.58;1.23;;;4.70;99.90;;;;;;5035435;28;20135;-66
2023/11/27 07:12:01;;;;;;;0.93;0.80;;;4.60;99.90;;;;;;5035637;28;20046;-66
2023/11/27 07:14:27;;;;;;;1.13;0.77;;;4.70;99.90;;;;;;5028427;28;20046;-66
2023/11/27 07:16:54;;;;;;;2.33;1.08;;;4.70;99.90;;;;;;5056524;28;20100;-66
2023/11/27 07:19:20;;;;;;;2.88;1.33;;;4.70;99.90;;;;;;4999080;28;20042;-66
2023/11/27 07:21:46;;;;;;;2.45;1.40;;;4.70;99.90;;;;;;5008699;28;20038;-66
2023/11/27 07:24:12;;;;;;;1.55;1.13;;;4.70;99.90;;;;;;5032745;28;20042;-66
2023/11/27 07:26:39;;;;;;;1.52;1.35;;;4.70;99.90;;;;;;5006442;28;20113;-66
2023/11/27 07:29:05;;;;;;;0.80;0.60;;;4.70;99.90;;;;;;5003148;28;20042;-66
2023/11/27 07:31:31;;;;;;;2.85;1.42;;;4.70;99.90;;;;;;5006306;28;20115;-66
2023/11/27 07:33:58;;;;;;;1.30;0.93;;;4.70;99.90;;;;;;5000034;28;20120;-67
2023/11/27 07:36:25;;;;;;;1.65;1.42;;;4.70;99.90;;;;;;5000420;28;20045;-66
2023/11/27 07:38:51;;;;;;;1.88;1.27;;;4.70;99.90;;;;;;5037914;28;20061;-67
2023/11/27 07:41:17;;;;;;;1.05;0.82;;;4.70;99.90;;;;;;5001601;28;20030;-66
2023/11/27 07:43:51;;;;;;;1.35;1.08;;;4.70;99.90;;;;;;5006340;28;20188;-66
2023/11/27 07:46:18;;;;;;;1.40;0.88;;;4.70;99.90;;;;;;4997374;28;20045;-66
2023/11/27 07:48:44;;;;;;;1.08;0.98;;;4.70;99.90;;;;;;5004989;28;20050;-66
2023/11/27 07:51:09;;;;;;;2.60;1.13;;;4.70;99.90;;;;;;5002600;28;20041;-66
2023/11/27 07:53:36;;;;;;;1.17;0.70;;;4.70;99.90;;;;;;5004951;28;20038;-66
2023/11/27 07:56:03;;;;;;;3.28;1.73;;;4.60;99.90;;;;;;5002434;28;20038;-66
2023/11/27 07:58:28;;;;;;;0.25;0.20;;;4.70;99.90;;;;;;5008666;28;20117;-67
2023/11/27 08:00:54;;;;;;;1.00;0.77;;;4.50;99.90;;;;;;5005711;28;20200;-67
2023/11/27 08:03:21;;;;;;;2.53;1.52;;;4.60;99.90;;;;;;5002860;28;20046;-66
2023/11/27 08:05:47;;;;;;;1.02;0.70;;;4.60;99.90;;;;;;5031158;28;20406;-66
2023/11/27 08:08:14;;;;;;;1.85;1.52;;;4.60;99.90;;;;;;5005968;28;20541;-66
2023/11/27 08:10:40;;;;;;;1.08;0.73;;;4.60;99.90;;;;;;5001582;28;20058;-66
2023/11/27 08:13:06;;;;;;;1.63;1.00;;;4.60;99.90;;;;;;5002403;28;20384;-66
2023/11/27 08:15:32;;;;;;;1.25;1.05;;;4.60;99.90;;;;;;5037780;28;20050;-66
2023/11/27 08:18:00;;;;;;;2.15;1.15;;;4.60;99.90;;;;;;5009216;28;20504;-66
2023/11/27 08:20:29;;;;;;;1.27;0.93;;;4.60;99.90;;;;;;5002934;28;20045;-66
2023/11/27 08:22:57;;;;;;;1.20;0.60;;;4.60;99.90;;;;;;5012451;28;20052;-66
2023/11/27 08:25:24;;;;;;;1.67;0.85;;;4.60;99.90;;;;;;5018172;28;20069;-66
2023/11/27 08:27:52;;;;;;;1.02;0.68;;;4.60;99.90;;;;;;5005148;28;20506;-65
2023/11/27 08:30:18;;;;;;;4.20;0.85;;;4.60;99.90;;;;;;5000442;28;20038;-65
2023/11/27 08:32:48;;;;;;;1.17;0.70;;;4.60;99.90;;;;;;5001855;28;20405;-65
2023/11/27 08:35:14;;;;;;;1.10;0.57;;;4.60;99.90;;;;;;5004714;28;20045;-66
2023/11/27 08:37:40;;;;;;;1.73;0.95;;;4.60;99.90;;;;;;5035500;28;20042;-65
2023/11/27 08:40:09;;;;;;;0.95;0.80;;;4.60;99.90;;;;;;5005124;28;20084;-65
2023/11/27 08:42:35;;;;;;;1.38;0.88;;;4.60;99.90;;;;;;4998774;28;20096;-65
2023/11/27 08:45:10;;;;;;;0.50;0.50;;;4.60;99.90;;;;;;5003550;28;20040;-66
2023/11/27 08:47:39;;;;;;;0.80;0.70;;;4.60;99.90;;;;;;5004682;28;20558;-66
2023/11/27 08:50:07;;;;;;;1.20;0.80;;;4.60;99.90;;;;;;5008548;28;20045;-66
2023/11/27 08:52:34;;;;;;;0.57;0.52;;;4.60;99.90;;;;;;4998840;28;20045;-66
2023/11/27 08:55:00;;;;;;;0.52;0.52;;;4.60;99.90;;;;;;5040825;28;20486;-66
2023/11/27 08:57:26;;;;;;;5.20;1.35;;;4.60;99.90;;;;;;5014097;28;20049;-66
2023/11/27 08:59:51;;;;;;;0.73;0.70;;;4.60;99.90;;;;;;5005093;28;20049;-66
2023/11/27 09:02:17;;;;;;;2.72;1.13;;;4.60;99.90;;;;;;5004051;28;20065;-66
2023/11/27 09:04:43;;;;;;;0.55;0.47;;;4.60;99.90;;;;;;5008758;28;20409;-66
2023/11/27 09:07:11;;;;;;;0.95;0.65;;;4.60;99.90;;;;;;5038308;28;20095;-66
2023/11/27 09:09:37;;;;;;;0.60;0.43;;;4.60;99.90;;;;;;5009192;28;20033;-66
2023/11/27 09:12:03;;;;;;;0.63;0.35;;;4.60;99.90;;;;;;5003291;28;20104;-66
2023/11/27 09:14:29;;;;;;;0.50;0.45;;;4.60;99.90;;;;;;5038555;28;20041;-66
2023/11/27 09:16:55;;;;;;;1.55;0.47;;;4.50;99.90;;;;;;5004647;28;20034;-65
2023/11/27 09:19:20;;;;;;;1.20;0.77;;;4.70;99.90;;;;;;5002363;28;20042;-65
2023/11/27 09:21:46;;;;;;;0.88;0.75;;;4.60;99.90;;;;;;5000637;28;20528;-65
2023/11/27 09:24:12;;;;;;;1.05;0.75;;;4.60;99.90;;;;;;5008428;28;20041;-65
2023/11/27 09:26:37;;;;;;;0.28;0.20;;;4.60;99.90;;;;;;5007669;28;20449;-65
2023/11/27 09:29:04;;;;;;;0.93;0.75;;;4.60;99.90;;;;;;5036558;28;20045;-66
2023/11/27 09:31:30;;;;;;;1.52;1.10;;;4.60;99.90;;;;;;5003955;28;20125;-65
2023/11/27 09:33:56;;;;;;;0.88;0.60;;;4.60;99.90;;;;;;5017570;28;20120;-65
2023/11/27 09:36:22;;;;;;;0.88;0.80;;;4.60;99.90;;;;;;5038017;28;20038;-65
2023/11/27 09:38:48;;;;;;;2.47;1.33;;;4.60;99.90;;;;;;5005653;28;20056;-66
2023/11/27 09:41:13;;;;;;;1.80;1.13;;;4.60;99.90;;;;;;5007395;28;20433;-66
2023/11/27 09:43:40;;;;;;;1.98;1.27;;;4.60;99.90;;;;;;5034941;28;20165;-66
2023/11/27 09:46:16;;;;;;;1.33;0.85;;;4.60;99.90;;;;;;5035983;28;20041;-65
2023/11/27 09:48:44;;;;;;;1.63;1.17;;;4.60;99.90;;;;;;5029667;28;20057;-65
2023/11/27 09:51:13;;;;;;;2.17;1.80;;;4.60;99.90;;;;;;5005035;28;20393;-65
2023/11/27 09:53:50;;;;;;;2.15;1.85;;;4.70;99.90;;;;;;5007798;28;20113;-66
2023/11/27 09:56:17;;;;;;;5.03;2.65;;;4.60;99.90;;;;;;5036806;28;20471;-65
2023/11/27 09:58:44;;;;;;;1.75;1.17;;;4.60;99.90;;;;;;5004953;28;20050;-65
2023/11/27 10:01:13;;;;;;;1.83;1.63;;;4.60;99.90;;;;;;5008964;28;20044;-65
2023/11/27 10:03:41;;;;;;;1.30;0.80;;;4.50;99.90;;;;;;5036554;28;20052;-66
2023/11/27 10:06:07;;;;;;;1.58;1.33;;;4.60;99.90;;;;;;5004895;28;20112;-66
2023/11/27 10:08:33;;;;;;;2.72;1.52;;;4.60;99.90;;;;;;5004779;28;20042;-67
2023/11/27 10:10:59;;;;;;;1.00;0.80;;;4.60;99.90;;;;;;5007155;28;20066;-66
2023/11/27 10:13:34;;;;;;;1.92;1.42;;;4.60;99.90;;;;;;5003055;28;20058;-66
2023/11/27 10:16:09;;;;;;;1.55;1.10;;;4.60;99.90;;;;;;5033681;28;20061;-66
2023/11/27 10:18:35;;;;;;;1.33;1.23;;;4.60;99.90;;;;;;5038980;28;20398;-66
2023/11/27 10:21:14;;;;;;;1.38;1.25;;;4.60;99.90;;;;;;5006648;28;20046;-66
2023/11/27 10:23:41;;;;;;;1.02;0.90;;;4.60;99.90;;;;;;5006904;28;20037;-67
2023/11/27 10:26:07;;;;;;;4.13;0.90;;;4.60;99.90;;;;;;5031807;28;20379;-66
2023/11/27 10:28:45;;;;;;;1.45;1.17;;;4.60;99.90;;;;;;5033813;28;20109;-66
2023/11/27 10:31:11;;;;;;;1.92;1.45;;;4.60;99.90;;;;;;5005678;28;20041;-66
2023/11/27 10:33:37;;;;;;;1.27;1.08;;;4.60;99.90;;;;;;5028601;28;20429;-66
2023/11/27 10:36:05;;;;;;;2.28;1.42;;;4.60;99.90;;;;;;5033599;28;20045;-66
2023/11/27 10:38:31;;;;;;;1.75;1.08;;;4.60;99.90;;;;;;5001347;28;20062;-66
2023/11/27 10:41:05;;;;;;;1.33;0.68;;;4.60;99.90;;;;;;5001546;28;20048;-66
2023/11/27 10:43:34;;;;;;;1.20;0.93;;;4.60;99.90;;;;;;5029593;28;20076;-66
2023/11/27 10:46:03;;;;;;;3.70;1.23;;;4.50;99.90;;;;;;4996823;28;20092;-66
2023/11/27 10:48:29;;;;;;;2.25;0.70;;;4.40;99.90;;;;;;5003321;28;20057;-66
2023/11/27 10:50:58;;;;;;;0.95;0.85;;;4.30;99.90;;;;;;5002309;28;20073;-66
2023/11/27 10:53:25;;;;;;;1.48;0.82;;;4.20;99.90;;;;;;5000730;28;20042;-66
2023/11/27 10:55:52;;;;;;;1.80;1.42;;;4.20;99.90;;;;;;4999733;28;20117;-66
2023/11/27 10:58:18;;;;;;;0.88;0.70;;;4.20;99.90;;;;;;5006085;28;20052;-66
2023/11/27 11:00:56;;;;;;;1.13;1.02;;;4.10;99.90;;;;;;4999832;28;20490;-66
2023/11/27 11:03:23;;;;;;;1.15;1.02;;;4.10;99.90;;;;;;5035008;28;20082;-66
2023/11/27 11:05:56;;;;;;;1.33;0.90;;;4.10;99.90;;;;;;5027700;28;20074;-66
2023/11/27 11:08:26;;;;;;;2.10;1.20;;;4.10;99.90;;;;;;5003657;28;20049;-67
2023/11/27 11:10:56;;;;;;;1.27;0.93;;;4.00;99.90;;;;;;5002972;28;20058;-66
2023/11/27 11:13:27;;;;;;;1.13;0.70;;;4.00;99.90;;;;;;5002656;28;20092;-66
2023/11/27 11:16:18;;;;;;;0.93;0.73;;;3.90;99.90;;;;;;4998975;28;20045;-66
2023/11/27 11:18:52;;;;;;;0.60;0.60;;;3.90;99.90;;;;;;5034322;28;20050;-67
2023/11/27 11:21:41;;;;;;;0.32;0.30;;;3.80;99.90;;;;;;5016024;28;20471;-66
2023/11/27 11:24:10;;;;;;;0.98;0.80;;;3.90;99.90;;;;;;5004515;28;20044;-66
2023/11/27 11:27:09;;;;;;;1.23;1.02;;;3.80;99.90;;;;;;5035317;28;20037;-66
2023/11/27 11:29:36;;;;;;;1.05;0.82;;;3.70;99.90;;;;;;5003807;28;20472;-66
2023/11/27 11:32:13;;;;;;;1.00;0.88;;;3.80;99.90;;;;;;5006102;28;20033;-66
2023/11/27 11:34:53;;;;;;;1.80;1.10;;;3.80;99.90;;;;;;5007016;28;20034;-66
2023/11/27 11:37:20;;;;;;;1.08;0.82;;;3.70;99.90;;;;;;5023919;28;20049;-66
2023/11/27 11:39:49;;;;;;;0.80;0.80;;;3.80;99.90;;;;;;5037919;28;20037;-66
2023/11/27 11:42:20;;;;;;;1.17;0.90;;;3.80;99.90;;;;;;5032691;28;20039;-66
2023/11/27 11:45:16;;;;;;;1.10;1.00;;;3.80;99.90;;;;;;5004481;28;20661;-66
2023/11/27 11:47:42;;;;;;;0.60;0.47;;;3.70;99.90;;;;;;5004029;28;20330;-66
2023/11/27 11:50:24;;;;;;;1.70;1.13;;;3.70;99.90;;;;;;5006365;28;20029;-66
2023/11/27 11:53:20;;;;;;;1.33;0.73;;;3.70;99.90;;;;;;5031099;28;20042;-66
2023/11/27 11:55:50;;;;;;;1.40;0.90;;;3.70;99.90;;;;;;5008765;28;20037;-66
2023/11/27 11:58:19;;;;;;;0.47;0.47;;;3.70;99.90;;;;;;4992163;28;20038;-67
2023/11/27 12:00:46;;;;;;;0.95;0.70;;;3.70;99.90;;;;;;4997205;28;20058;-66
2023/11/27 12:03:17;;;;;;;1.00;0.90;;;3.70;99.90;;;;;;5009812;28;20092;-66
2023/11/27 12:05:53;;;;;;;0.88;0.80;;;3.70;99.90;;;;;;5006335;28;20112;-67
2023/11/27 12:08:30;;;;;;;1.08;0.57;;;3.70;99.90;;;;;;5033910;28;20487;-67
2023/11/27 12:10:58;;;;;;;1.40;0.60;;;3.70;99.90;;;;;;5007291;28;20081;-66
2023/11/27 12:13:33;;;;;;;0.68;0.40;;;3.60;99.90;;;;;;5032262;28;20065;-67
2023/11/27 12:16:07;;;;;;;0.55;0.52;;;3.70;99.90;;;;;;5005549;28;20494;-66
2023/11/27 12:18:34;;;;;;;0.55;0.45;;;3.70;99.90;;;;;;5007160;28;20097;-67
2023/11/27 12:21:04;;;;;;;0.30;0.28;;;3.60;99.90;;;;;;4997857;28;20034;-67
2023/11/27 12:23:38;;;;;;;0.28;0.20;;;3.70;99.90;;;;;;5042860;28;20042;-66
2023/11/27 12:26:10;;;;;;;0.57;0.50;;;3.70;99.90;;;;;;5002820;28;20053;-67
2023/11/27 12:28:36;;;;;;;0.75;0.52;;;3.70;99.90;;;;;;5034364;28;20038;-67
2023/11/27 12:31:05;;;;;;;0.40;0.40;;;3.60;99.90;;;;;;5033432;28;20049;-66
2023/11/27 12:33:34;;;;;;;0.47;0.35;;;3.60;99.90;;;;;;5002791;28;20041;-67
2023/11/27 12:36:04;;;;;;;0.32;0.28;;;3.60;99.90;;;;;;5007313;28;20034;-66
2023/11/27 12:38:31;;;;;;;0.40;0.40;;;3.60;99.90;;;;;;5040434;28;20104;-66
2023/11/27 12:41:03;;;;;;;1.00;0.85;;;3.60;99.90;;;;;;5002661;28;20474;-67
2023/11/27 12:43:36;;;;;;;0.30;0.20;;;3.60;99.90;;;;;;5037547;28;20045;-67
2023/11/27 12:46:13;;;;;;;1.10;0.70;;;3.60;99.90;;;;;;5001748;28;20104;-67
2023/11/27 12:48:42;;;;;;;0.30;0.30;;;3.50;99.90;;;;;;5036817;28;20062;-67
2023/11/27 12:51:13;;;;;;;0.30;0.30;;;3.50;99.90;;;;;;5001589;28;20081;-66
2023/11/27 12:53:43;;;;;;;0.65;0.40;;;3.50;99.90;;;;;;4999872;28;20050;-66
2023/11/27 12:56:12;;;;;;;0.75;0.60;;;3.50;99.90;;;;;;5009743;28;20038;-67
2023/11/27 12:58:38;;;;;;;0.38;0.35;;;3.60;99.90;;;;;;5026736;28;20037;-67